Aérodrome :
LOGIN :

S'inscrire | Disclaimer

   EN    FR    IT 

 










Légende :    VFR   VFR Marginal   IFR   IFR Intensif   IFR Très Intensif
Visi : 
Plafond : 
>= 8 km
>= 3000ft
5 à 8 km
1000 à 3000 ft
1500m à 5 km
500 à 1000 ft
800 à 1500m
200 à 500 ft
< 800m
< 200 ft
Symboles :   Orages  Brouillard  Fortes neiges  Fortes précipitations  Vent > 20 kt
SIGMETs :   Divers  Orages  Givrage  Turbulence  Onde Orograph.  Cendres Volcan.






- Altitude de l'aérodrome : 768 ft
- Code IATA : MXP


LIMC - Milano Malpensa

DERNIER METAR :
  • 091020Z VRB02KT 3000 BR NSC 08/06 Q1008 NOSIG

METARs EXPIRÉS :
  • 090950Z 30003KT 270V340 2500 BR SCT004 07/07 Q1009 NOSIG
  • 090920Z 29003KT 250V330 2000 BR SCT004 BKN040 06/06 Q1009 NOSIG
  • 090850Z 25004KT 230V290 2000 BCFG BKN004 06/06 Q1009 NOSIG
  • 090820Z VRB01KT 2000 R35R/1400D R17L/1200D R35L/P1500N BCFG BKN004 04/04 Q1009 NOSIG
  • 090750Z 34003KT 310V010 2000 R35R/0900VP1500U R17L/P1500N R35L/1400U BCFG SCT004 03/03 Q1009 NOSIG

TAF TAF LIMC
Valide du 09 à 06h jusqu'au 10 à 12h UTC


090500Z 0906/1012 VRB05KT 8000 BKN050
TEMPO 0906/0908 4000 DZ
BECMG 0921/0924 35015KT



MET'MAP, la Météo Aéronautique d'un coup d'oeil ! - Copyright ORBIFLY Décembre 2007 - Disclaimer

ORBIFLY MET'MAP TEAM :

Programmation & Développement : Alexandra Zaïnal
Sur une idée originale de : Baudouin d'Aumeries
Assistance à la programmation : Marc-Olivier Méhu
Soutien technique & logistique : Manuel Goepfert

Contact : metmap@orbifly.com




SOURCES & CREDITS :

   NOAA